createdAt,value
2023-04-09T06:18:58.020Z,83.01
2023-04-09T06:21:24.834Z,84.29
2023-04-09T06:23:53.953Z,83.66
2023-04-09T06:26:21.694Z,83.42
2023-04-09T06:28:48.514Z,83.12
2023-04-09T06:31:15.831Z,83.82
2023-04-09T06:33:42.752Z,83.59
2023-04-09T06:36:09.720Z,83.32
2023-04-09T06:38:36.528Z,84.22
2023-04-09T06:41:03.838Z,83.45
2023-04-09T06:43:30.882Z,83.04
2023-04-09T06:45:57.779Z,83.45
2023-04-09T06:48:24.644Z,83.61
2023-04-09T06:50:51.674Z,83.32
2023-04-09T06:53:18.536Z,83.59
2023-04-09T06:55:45.404Z,84.38
2023-04-09T06:58:12.223Z,84.40
2023-04-09T07:00:39.131Z,84.60
2023-04-09T07:03:08.226Z,84.65
2023-04-09T07:05:36.104Z,83.79
2023-04-09T07:08:03.017Z,83.44
2023-04-09T07:10:30.011Z,83.80
2023-04-09T07:12:56.896Z,83.75
2023-04-09T07:15:23.954Z,83.91
2023-04-09T07:17:50.840Z,84.52
2023-04-09T07:20:19.160Z,84.12
2023-04-09T07:22:46.215Z,83.72
2023-04-09T07:25:13.084Z,83.10
2023-04-09T07:27:39.945Z,82.72
2023-04-09T07:30:07.527Z,82.61
2023-04-09T07:32:34.440Z,82.28
2023-04-09T07:35:02.565Z,82.26
2023-04-09T07:37:29.588Z,82.53
2023-04-09T07:39:56.796Z,82.35
2023-04-09T07:42:23.800Z,82.10
2023-04-09T07:44:50.634Z,81.07
2023-04-09T07:47:17.532Z,81.06
2023-04-09T07:49:44.342Z,80.86
2023-04-09T07:52:11.732Z,80.04
2023-04-09T07:54:38.554Z,80.91
2023-04-09T07:57:05.571Z,79.48
2023-04-09T07:59:32.733Z,79.38
2023-04-09T08:01:59.963Z,78.92
2023-04-09T08:04:27.513Z,78.29
2023-04-09T08:06:54.642Z,78.52
2023-04-09T08:09:21.768Z,77.44
2023-04-09T08:11:49.386Z,77.33
2023-04-09T08:14:17.263Z,77.07
2023-04-09T08:16:48.765Z,77.02
2023-04-09T08:19:17.385Z,75.26
2023-04-09T08:21:44.720Z,75.28
2023-04-09T08:24:12.147Z,74.97
2023-04-09T08:26:43.239Z,74.92
2023-04-09T08:29:11.834Z,74.47
2023-04-09T08:31:38.948Z,74.46
2023-04-09T08:34:06.245Z,73.92
2023-04-09T08:36:35.090Z,73.93
2023-04-09T08:39:02.758Z,74.26
2023-04-09T08:41:30.184Z,73.75
2023-04-09T08:43:59.225Z,74.63
2023-04-09T08:46:27.362Z,73.81
2023-04-09T08:48:55.042Z,73.06
2023-04-09T08:51:23.546Z,74.11
2023-04-09T08:53:57.422Z,74.04
2023-04-09T08:56:24.906Z,74.20
2023-04-09T08:58:52.114Z,72.93
2023-04-09T09:01:27.644Z,73.67
2023-04-09T09:04:00.212Z,73.39
2023-04-09T09:06:30.179Z,73.75
2023-04-09T09:09:07.441Z,73.05
2023-04-09T09:11:38.900Z,73.09
2023-04-09T09:14:08.643Z,72.75
2023-04-09T09:16:40.323Z,71.88
2023-04-09T09:19:07.416Z,72.38
2023-04-09T09:21:35.029Z,72.37
2023-04-09T09:24:02.051Z,73.40
2023-04-09T09:26:30.451Z,72.41
2023-04-09T09:29:00.830Z,72.15
2023-04-09T09:31:27.837Z,71.55
2023-04-09T09:33:55.202Z,71.90
2023-04-09T09:36:35.259Z,71.99
2023-04-09T09:39:10.468Z,72.11
2023-04-09T09:41:38.144Z,72.43
2023-04-09T09:44:07.418Z,73.08
2023-04-09T09:46:38.851Z,73.48
2023-04-09T09:49:06.923Z,73.53
2023-04-09T09:51:37.299Z,74.15
2023-04-09T09:54:04.629Z,75.37
2023-04-09T09:56:37.297Z,75.42
2023-04-09T09:59:23.642Z,75.68
2023-04-09T10:01:58.914Z,75.31
2023-04-09T10:04:29.271Z,75.38
2023-04-09T10:06:57.042Z,75.16
2023-04-09T10:09:24.470Z,74.63
2023-04-09T10:11:51.375Z,73.88
2023-04-09T10:14:18.234Z,73.83
2023-04-09T10:16:45.310Z,74.69
2023-04-09T10:19:15.363Z,74.73
2023-04-09T10:21:56.842Z,75.00
2023-04-09T10:24:24.258Z,74.05
2023-04-09T10:26:54.835Z,74.78
2023-04-09T10:29:28.403Z,75.08
2023-04-09T10:32:04.602Z,75.12
2023-04-09T10:34:35.755Z,75.03
2023-04-09T10:37:02.990Z,75.50
2023-04-09T10:39:33.601Z,75.35
2023-04-09T10:42:02.701Z,74.77
2023-04-09T10:44:32.344Z,74.27
2023-04-09T10:46:59.832Z,74.25
2023-04-09T10:49:27.457Z,74.66
2023-04-09T10:52:12.582Z,75.21
2023-04-09T10:54:44.182Z,74.12
2023-04-09T10:57:21.705Z,74.61
2023-04-09T10:59:55.593Z,74.97
2023-04-09T11:02:28.586Z,75.02
2023-04-09T11:05:01.702Z,74.90
2023-04-09T11:07:30.416Z,74.35
2023-04-09T11:09:57.204Z,75.14
2023-04-09T11:12:24.025Z,74.77
2023-04-09T11:14:50.910Z,74.87
2023-04-09T11:17:18.955Z,75.22
2023-04-09T11:19:47.062Z,76.25
2023-04-09T11:22:13.932Z,75.64
2023-04-09T11:24:44.333Z,75.43
2023-04-09T11:27:11.333Z,75.83
2023-04-09T11:29:38.546Z,75.58
2023-04-09T11:32:05.813Z,75.31
2023-04-09T11:34:32.808Z,75.26
2023-04-09T11:37:02.365Z,76.51
2023-04-09T11:39:29.469Z,75.92
2023-04-09T11:41:57.985Z,75.87
2023-04-09T11:44:24.969Z,76.36
2023-04-09T11:46:52.240Z,75.25
2023-04-09T11:49:19.174Z,75.51
2023-04-09T11:51:46.091Z,76.06
2023-04-09T11:54:12.896Z,75.59
2023-04-09T11:56:40.084Z,77.40
2023-04-09T11:59:07.013Z,77.47
2023-04-09T12:01:34.066Z,78.01
2023-04-09T12:04:01.645Z,77.94
2023-04-09T12:06:28.763Z,77.78
2023-04-09T12:08:59.685Z,78.70
2023-04-09T12:11:32.059Z,78.08
2023-04-09T12:14:00.168Z,78.19
2023-04-09T12:16:27.098Z,77.95
2023-04-09T12:18:56.007Z,78.62
2023-04-09T12:21:27.499Z,78.14
2023-04-09T12:23:54.371Z,77.36
2023-04-09T12:26:21.306Z,76.57
2023-04-09T12:28:48.152Z,77.20
2023-04-09T12:31:15.021Z,76.68
2023-04-09T12:33:42.906Z,77.05
2023-04-09T12:36:09.870Z,77.22
2023-04-09T12:38:36.833Z,77.62
2023-04-09T12:41:03.843Z,78.31
2023-04-09T12:43:30.677Z,78.44
2023-04-09T12:45:58.399Z,78.26
2023-04-09T12:48:25.297Z,79.05
2023-04-09T12:50:52.117Z,78.73
2023-04-09T12:53:18.999Z,78.97
2023-04-09T12:55:45.867Z,80.46
2023-04-09T12:58:12.740Z,80.86
2023-04-09T13:00:39.628Z,80.40
2023-04-09T13:03:07.040Z,80.33
2023-04-09T13:05:35.770Z,80.68
2023-04-09T13:08:03.091Z,80.54
2023-04-09T13:10:31.233Z,80.37
2023-04-09T13:12:58.076Z,79.97
2023-04-09T13:15:24.981Z,80.25
2023-04-09T13:17:51.901Z,79.94
2023-04-09T13:20:19.016Z,79.64
2023-04-09T13:22:49.339Z,79.94
2023-04-09T13:25:16.898Z,79.94
2023-04-09T13:27:44.273Z,80.30
2023-04-09T13:30:11.465Z,79.73
2023-04-09T13:32:38.628Z,79.72
2023-04-09T13:35:06.835Z,79.54
2023-04-09T13:37:33.838Z,79.94
2023-04-09T13:40:00.740Z,80.06
2023-04-09T13:42:28.072Z,79.91
2023-04-09T13:44:55.446Z,79.89
2023-04-09T13:47:24.195Z,80.69
2023-04-09T13:49:53.314Z,80.82
2023-04-09T13:52:20.389Z,82.98
2023-04-09T13:54:47.350Z,82.16
2023-04-09T13:57:14.312Z,82.86
2023-04-09T13:59:42.646Z,82.36
2023-04-09T14:02:09.697Z,82.27
2023-04-09T14:04:36.770Z,83.30
2023-04-09T14:07:03.669Z,83.26
2023-04-09T14:09:30.778Z,84.37
2023-04-09T14:11:58.010Z,84.39
2023-04-09T14:14:24.880Z,84.23
2023-04-09T14:16:51.746Z,84.20
2023-04-09T14:19:18.617Z,84.42
2023-04-09T14:21:45.517Z,83.78
2023-04-09T14:24:12.472Z,82.24
2023-04-09T14:26:39.389Z,82.02
2023-04-09T14:29:06.244Z,82.54
2023-04-09T14:31:33.175Z,82.45
2023-04-09T14:34:00.034Z,83.06
2023-04-09T14:36:27.530Z,83.73
2023-04-09T14:38:56.294Z,84.01
2023-04-09T14:41:24.579Z,84.59
2023-04-09T14:43:51.459Z,84.97
2023-04-09T14:46:18.296Z,85.61
2023-04-09T14:48:45.240Z,85.83
2023-04-09T14:51:12.314Z,85.50
2023-04-09T14:53:39.163Z,85.27
2023-04-09T14:56:06.932Z,86.01
2023-04-09T14:58:33.861Z,86.49
2023-04-09T15:01:00.889Z,87.01
2023-04-09T15:03:28.162Z,87.15
2023-04-09T15:05:55.648Z,87.85
2023-04-09T15:08:23.788Z,87.61
2023-04-09T15:10:51.530Z,87.55
2023-04-09T15:13:18.394Z,88.19
2023-04-09T15:15:45.332Z,88.30
2023-04-09T15:18:12.270Z,88.34
2023-04-09T15:20:39.998Z,88.63
2023-04-09T15:23:06.865Z,89.53
2023-04-09T15:25:33.749Z,89.28
2023-04-09T15:28:00.604Z,89.19
2023-04-09T15:30:27.603Z,89.50
2023-04-09T15:32:54.616Z,89.33
2023-04-09T15:35:25.378Z,90.76
2023-04-09T15:37:52.342Z,90.80
2023-04-09T15:40:19.541Z,90.57
2023-04-09T15:42:46.430Z,91.36
2023-04-09T15:45:16.109Z,91.83
2023-04-09T15:47:45.044Z,92.15
2023-04-09T15:50:12.086Z,91.83
2023-04-09T15:52:38.965Z,92.35
2023-04-09T15:55:06.379Z,92.04
2023-04-09T15:57:33.265Z,92.73
2023-04-09T16:00:00.157Z,92.39
2023-04-09T16:02:27.408Z,93.37
2023-04-09T16:04:54.455Z,93.41
2023-04-09T16:07:21.309Z,93.68
2023-04-09T16:09:48.540Z,94.07
2023-04-09T16:12:15.575Z,93.85
2023-04-09T16:14:42.519Z,93.76
2023-04-09T16:17:10.419Z,94.26
2023-04-09T16:19:37.294Z,94.55
2023-04-09T16:22:04.164Z,94.46
2023-04-09T16:24:31.876Z,95.15
2023-04-09T16:26:58.802Z,94.99
2023-04-09T16:29:25.875Z,96.29
2023-04-09T16:31:53.047Z,95.78
2023-04-09T16:34:19.986Z,95.70
2023-04-09T16:36:46.815Z,96.61
2023-04-09T16:39:15.394Z,96.41
2023-04-09T16:41:44.673Z,96.43
2023-04-09T16:44:11.576Z,95.94
2023-04-09T16:46:38.423Z,96.85
2023-04-09T16:49:05.436Z,97.31
2023-04-09T16:51:32.248Z,96.59
2023-04-09T16:53:59.074Z,97.04
2023-04-09T16:56:26.236Z,97.03
2023-04-09T16:58:53.290Z,97.40
2023-04-09T17:01:20.620Z,98.18
2023-04-09T17:03:49.341Z,98.75
2023-04-09T17:06:16.445Z,99.58
2023-04-09T17:08:43.349Z,99.73
2023-04-09T17:11:10.212Z,99.26
2023-04-09T17:13:37.156Z,99.07
2023-04-09T17:16:04.247Z,97.93
2023-04-09T17:18:31.149Z,100.00
2023-04-09T17:20:59.854Z,99.70
2023-04-09T17:23:26.783Z,99.54
2023-04-09T17:25:54.089Z,99.66
2023-04-09T17:28:21.074Z,100.00
2023-04-09T17:30:47.984Z,100.00
2023-04-09T17:33:14.964Z,100.00
2023-04-09T17:35:42.412Z,100.00
2023-04-09T17:38:09.322Z,100.00
2023-04-09T17:40:36.168Z,100.00
2023-04-09T17:43:03.052Z,100.00
2023-04-09T17:45:29.976Z,100.00
2023-04-09T17:47:57.366Z,100.00
2023-04-09T17:50:25.243Z,100.00
2023-04-09T17:52:52.187Z,100.00
2023-04-09T17:55:19.556Z,100.00
2023-04-09T17:57:46.421Z,100.00
2023-04-09T18:00:13.885Z,100.00
2023-04-09T18:02:41.073Z,100.00
2023-04-09T18:05:08.638Z,100.00
2023-04-09T18:07:35.596Z,100.00
2023-04-09T18:10:03.557Z,100.00
2023-04-09T18:12:30.809Z,100.00
2023-04-09T18:14:57.641Z,100.00
2023-04-09T18:17:26.480Z,100.00
2023-04-09T18:19:58.575Z,100.00
2023-04-09T18:22:27.222Z,100.00
2023-04-09T18:24:54.357Z,100.00
2023-04-09T18:27:21.830Z,100.00
2023-04-09T18:29:51.617Z,100.00
2023-04-09T18:32:19.871Z,100.00
2023-04-09T18:34:47.959Z,100.00
2023-04-09T18:37:18.824Z,100.00
2023-04-09T18:39:46.549Z,100.00
2023-04-09T18:42:14.036Z,100.00
2023-04-09T18:44:40.880Z,100.00
2023-04-09T18:47:09.565Z,100.00
2023-04-09T18:49:37.053Z,100.00
2023-04-09T18:52:09.359Z,100.00
2023-04-09T18:54:37.476Z,100.00
2023-04-09T18:57:04.692Z,100.00
2023-04-09T18:59:33.608Z,100.00
2023-04-09T19:02:05.393Z,100.00
2023-04-09T19:04:39.994Z,100.00
2023-04-09T19:07:07.236Z,100.00
2023-04-09T19:09:34.671Z,100.00
2023-04-09T19:12:02.182Z,100.00
2023-04-09T19:14:29.121Z,100.00
2023-04-09T19:16:56.439Z,100.00
2023-04-09T19:19:23.731Z,100.00
2023-04-09T19:21:50.877Z,100.00
2023-04-09T19:24:17.674Z,100.00
2023-04-09T19:26:44.559Z,100.00
2023-04-09T19:29:11.513Z,100.00
2023-04-09T19:31:38.363Z,100.00
2023-04-09T19:34:06.313Z,100.00
2023-04-09T19:36:34.215Z,100.00
2023-04-09T19:39:01.384Z,100.00
2023-04-09T19:41:28.264Z,100.00
2023-04-09T19:43:55.115Z,100.00
2023-04-09T19:46:22.058Z,100.00
2023-04-09T19:48:48.970Z,100.00
2023-04-09T19:51:20.353Z,100.00
2023-04-09T19:53:48.181Z,100.00
2023-04-09T19:56:15.801Z,100.00
